Time;durP1;ratioP1;P1;durP2;ratioP2;P2;SDS_P1;SDS_P2;PMS_P1;PMS_P2;Temp;Humidity;BMP_temperature;BMP_pressure;BME280_temperature;BME280_humidity;BME280_pressure;Samples;Min_cycle;Max_cycle;Signal;HPM_P1;HPM_P2
2022/10/02 15:53:50;;;;;;;6.30;2.70;;;14.00;1.00;;;;;;6210972;22;1300353;-89
2022/10/02 15:56:31;;;;;;;7.25;2.50;;;13.80;21.20;;;;;;6237465;23;20166;-88
2022/10/02 15:59:23;;;;;;;5.47;2.22;;;13.80;99.90;;;;;;6234915;23;20244;-90
2022/10/02 16:01:59;;;;;;;6.28;2.38;;;13.60;99.90;;;;;;6234989;23;20181;-89
2022/10/02 16:04:27;;;;;;;5.80;2.10;;;13.40;99.90;;;;;;6235017;23;20177;-89
2022/10/02 16:07:19;;;;;;;7.20;1.70;;;13.20;99.90;;;;;;6235039;23;20158;-88
2022/10/02 16:09:49;;;;;;;2.83;1.05;;;13.00;1.00;;;;;;6218347;23;20158;-88
2022/10/02 16:12:32;;;;;;;2.83;0.90;;;12.80;1.00;;;;;;6239618;23;20184;-91
2022/10/02 16:15:19;;;;;;;4.88;1.85;;;12.60;1.00;;;;;;6235565;23;20162;-89
2022/10/02 16:17:53;;;;;;;6.20;3.70;;;12.50;1.00;;;;;;6241601;23;20157;-89
2022/10/02 16:20:41;;;;;;;6.03;2.60;;;12.40;1.00;;;;;;6243040;23;20268;-89
2022/10/02 16:23:16;;;;;;;13.38;5.10;;;12.40;1.00;;;;;;6243152;22;20169;-89
2022/10/02 16:25:48;;;;;;;11.05;5.82;;;12.30;1.00;;;;;;6237663;23;20181;-91
2022/10/02 16:28:47;;;;;;;24.77;10.68;;;12.20;1.00;;;;;;6234458;23;20185;-89
2022/10/02 16:31:43;;;;;;;5.28;2.67;;;12.20;1.00;;;;;;6234563;23;20150;-89
2022/10/02 16:34:36;;;;;;;4.75;1.67;;;12.10;1.00;;;;;;6234684;23;20171;-89
2022/10/02 16:37:43;;;;;;;3.05;1.48;;;12.00;99.90;;;;;;6234664;23;20154;-89
2022/10/02 16:40:27;;;;;;;5.88;1.50;;;11.90;1.00;;;;;;6193326;23;20540;-89
2022/10/02 16:43:21;;;;;;;4.75;1.60;;;11.90;1.00;;;;;;6236056;22;20188;-89
2022/10/02 16:46:02;;;;;;;5.93;1.63;;;11.80;1.00;;;;;;6234013;23;20188;-89
2022/10/02 16:49:02;;;;;;;4.82;1.52;;;11.80;1.00;;;;;;6236918;23;20181;-89
2022/10/02 16:51:32;;;;;;;4.43;1.60;;;11.80;1.00;;;;;;6214166;23;20289;-89
2022/10/02 16:54:24;;;;;;;4.47;1.77;;;11.70;63.00;;;;;;6234713;23;20173;-89
2022/10/02 16:56:57;;;;;;;3.58;1.40;;;11.70;1.00;;;;;;6240584;23;20153;-90
2022/10/02 16:59:44;;;;;;;7.03;1.83;;;11.60;1.00;;;;;;6235638;23;20578;-90
2022/10/02 17:02:21;;;;;;;5.13;1.90;;;11.50;99.90;;;;;;6234351;23;20210;-89
2022/10/02 17:05:06;;;;;;;5.38;1.73;;;11.50;1.00;;;;;;6235449;23;20240;-89
2022/10/02 17:07:58;;;;;;;6.45;1.70;;;11.40;1.00;;;;;;6237142;23;20160;-89
2022/10/02 17:10:39;;;;;;;4.93;1.60;;;11.30;76.70;;;;;;6238066;23;20150;-89
2022/10/02 17:13:26;;;;;;;5.35;1.85;;;11.30;1.00;;;;;;6238098;23;20173;-89
2022/10/02 17:15:58;;;;;;;3.38;1.60;;;11.20;1.00;;;;;;6237982;23;20507;-89
2022/10/02 17:18:30;;;;;;;5.45;2.10;;;11.10;1.00;;;;;;6239207;23;20158;-90
2022/10/02 17:21:07;;;;;;;7.03;3.15;;;11.10;1.00;;;;;;6237389;23;20154;-89
2022/10/02 17:23:54;;;;;;;7.03;3.67;;;11.20;1.00;;;;;;6237991;23;20189;-90
2022/10/02 17:27:02;;;;;;;8.20;4.60;;;11.10;1.00;;;;;;6237886;23;20174;-89
2022/10/02 17:29:39;;;;;;;7.72;2.78;;;11.10;99.90;;;;;;6180655;22;20161;-89
2022/10/02 17:32:07;;;;;;;6.67;2.80;;;11.20;99.90;;;;;;6237405;23;20184;-89
2022/10/02 17:34:55;;;;;;;9.98;4.38;;;11.20;99.90;;;;;;6238874;22;20337;-89
2022/10/02 17:37:43;;;;;;;6.60;2.95;;;11.30;1.00;;;;;;6237994;23;20153;-89
2022/10/02 17:40:19;;;;;;;9.70;2.90;;;11.30;99.90;;;;;;6237992;23;20162;-90
2022/10/02 17:43:16;;;;;;;8.07;2.97;;;11.20;99.90;;;;;;6238238;23;20180;-89
2022/10/02 17:46:22;;;;;;;9.63;2.60;;;11.20;1.00;;;;;;6180243;23;20193;-89
2022/10/02 17:48:56;;;;;;;5.93;2.08;;;11.10;1.00;;;;;;6238126;23;20172;-89
2022/10/02 17:51:46;;;;;;;9.45;2.55;;;11.20;1.00;;;;;;6237958;23;20252;-89
2022/10/02 17:58:03;;;;;;;8.87;2.70;;;11.20;99.90;;;;;;6238624;23;20175;-89
2022/10/02 18:00:33;;;;;;;8.63;1.88;;;11.30;1.00;;;;;;6091888;23;20171;-89
2022/10/02 18:03:22;;;;;;;7.13;2.10;;;11.30;99.90;;;;;;6220847;23;20183;-90
2022/10/02 18:06:05;;;;;;;8.13;2.97;;;11.40;1.00;;;;;;6231785;23;20181;-90
2022/10/02 18:08:33;;;;;;;9.52;3.05;;;11.40;1.00;;;;;;6233173;23;20177;-90
2022/10/02 18:11:44;;;;;;;6.60;2.37;;;11.50;1.00;;;;;;6232662;23;20157;-90
2022/10/02 18:14:47;;;;;;;4.85;2.13;;;11.50;1.00;;;;;;6232690;23;20162;-90
2022/10/02 18:17:25;;;;;;;3.90;1.90;;;11.60;99.90;;;;;;6233171;23;20188;-90
2022/10/02 18:20:09;;;;;;;7.65;2.25;;;11.60;99.90;;;;;;6233954;23;20575;-90
2022/10/02 18:23:00;;;;;;;7.70;2.50;;;11.60;1.00;;;;;;6238538;23;20181;-89
2022/10/02 18:25:29;;;;;;;9.23;2.83;;;11.60;1.00;;;;;;6238171;22;20166;-90
2022/10/02 18:28:16;;;;;;;7.40;2.70;;;11.50;1.00;;;;;;6237102;23;20154;-89
2022/10/02 18:31:06;;;;;;;8.93;2.15;;;11.50;99.90;;;;;;6237064;23;20173;-90
2022/10/02 18:33:42;;;;;;;4.32;1.80;;;11.30;99.90;;;;;;6237754;23;20174;-89
2022/10/02 18:36:19;;;;;;;5.43;1.92;;;11.30;99.90;;;;;;6239044;22;20141;-88
2022/10/02 18:39:22;;;;;;;6.32;2.42;;;11.20;1.00;;;;;;6238178;23;20164;-90
2022/10/02 18:42:15;;;;;;;8.30;2.42;;;11.20;99.90;;;;;;6092416;23;20195;-89
2022/10/02 18:45:02;;;;;;;8.25;2.55;;;11.10;1.00;;;;;;6234685;23;20173;-89
2022/10/02 18:47:37;;;;;;;11.13;2.57;;;11.10;1.00;;;;;;6237233;23;20362;-89
2022/10/02 18:50:17;;;;;;;7.63;2.57;;;11.00;1.00;;;;;;6237171;23;20648;-90
2022/10/02 18:53:01;;;;;;;8.00;2.72;;;11.10;1.00;;;;;;6237288;23;20189;-89
2022/10/02 18:55:33;;;;;;;9.90;3.47;;;11.00;1.00;;;;;;6238001;23;21035;-90
2022/10/02 18:58:19;;;;;;;20.07;8.03;;;11.00;99.90;;;;;;6237422;23;20606;-90
2022/10/02 19:01:24;;;;;;;27.17;11.33;;;11.00;1.00;;;;;;6237592;23;20232;-89
2022/10/02 19:04:31;;;;;;;21.33;7.03;;;10.90;1.00;;;;;;6237505;23;20154;-89
2022/10/02 19:07:18;;;;;;;12.43;4.27;;;11.00;1.00;;;;;;6237678;23;20161;-89
2022/10/02 19:09:51;;;;;;;16.40;7.60;;;10.90;1.00;;;;;;6239302;22;20137;-89
2022/10/02 19:12:41;;;;;;;14.97;6.80;;;10.90;99.90;;;;;;6236867;23;20483;-89
2022/10/02 19:15:22;;;;;;;13.83;7.20;;;11.00;99.90;;;;;;6212254;23;20161;-88
2022/10/02 19:18:02;;;;;;;15.20;5.95;;;11.00;62.90;;;;;;6237436;23;20593;-89
2022/10/02 19:20:49;;;;;;;10.53;4.73;;;11.10;1.00;;;;;;6237574;23;20452;-89
2022/10/02 19:23:37;;;;;;;13.03;5.50;;;11.20;1.00;;;;;;6237429;23;20181;-89
2022/10/02 19:26:22;;;;;;;16.25;6.07;;;11.20;99.90;;;;;;6237202;23;20185;-89
2022/10/02 19:29:35;;;;;;;14.32;6.28;;;11.20;99.90;;;;;;6237043;23;20604;-89
2022/10/02 19:32:20;;;;;;;13.33;4.67;;;11.30;99.90;;;;;;6239761;22;20621;-89
2022/10/02 19:35:08;;;;;;;11.33;4.90;;;11.30;99.90;;;;;;6238706;23;20612;-89
2022/10/02 19:37:40;;;;;;;12.83;3.93;;;11.30;1.00;;;;;;6241982;22;20253;-88
2022/10/02 19:40:23;;;;;;;13.70;4.47;;;11.40;1.00;;;;;;6239247;23;20154;-89
2022/10/02 19:43:04;;;;;;;10.77;4.53;;;11.30;11.20;;;;;;6239107;23;20191;-89
2022/10/02 19:45:34;;;;;;;9.40;3.10;;;11.40;1.00;;;;;;6238827;23;20270;-89
2022/10/02 19:48:06;;;;;;;11.05;3.22;;;11.40;1.00;;;;;;6238659;23;20499;-89
2022/10/02 19:50:45;;;;;;;13.57;3.55;;;11.30;1.00;;;;;;6239287;23;20161;-89
2022/10/02 19:53:34;;;;;;;12.30;3.63;;;11.30;43.70;;;;;;6238623;23;20195;-89
2022/10/02 19:56:11;;;;;;;10.95;3.15;;;11.30;24.60;;;;;;6213999;23;20215;-89
2022/10/02 19:58:52;;;;;;;10.27;2.67;;;11.30;1.00;;;;;;6238686;23;20158;-89
2022/10/02 20:01:40;;;;;;;10.82;3.30;;;11.30;1.00;;;;;;6238702;23;20645;-89
2022/10/02 20:04:10;;;;;;;7.90;2.97;;;11.30;1.00;;;;;;6215741;23;20176;-89
2022/10/02 20:06:51;;;;;;;9.95;3.08;;;11.20;1.00;;;;;;6214660;23;20208;-88
2022/10/02 20:10:00;;;;;;;7.57;3.08;;;11.20;1.00;;;;;;6241332;22;20240;-89
2022/10/02 20:12:42;;;;;;;12.23;3.27;;;11.00;86.30;;;;;;6238736;23;20617;-89
2022/10/02 20:18:13;;;;;;;12.23;3.10;;;10.80;1.00;;;;;;6243476;23;20187;-89
2022/10/02 20:21:05;;;;;;;10.43;2.70;;;10.80;99.90;;;;;;6214884;23;20253;-89
2022/10/02 20:23:33;;;;;;;12.60;3.23;;;10.60;1.00;;;;;;6239288;23;20584;-89
2022/10/02 20:26:07;;;;;;;11.50;3.10;;;10.70;99.90;;;;;;6239110;23;20193;-89
2022/10/02 20:28:39;;;;;;;14.30;3.57;;;10.50;1.00;;;;;;6215540;23;20146;-89
2022/10/02 20:31:12;;;;;;;11.20;2.77;;;10.50;1.00;;;;;;6239075;23;20602;-89
2022/10/02 20:34:08;;;;;;;7.80;2.67;;;10.50;1.00;;;;;;6239160;23;20184;-88
2022/10/02 20:36:57;;;;;;;12.97;2.80;;;10.50;1.00;;;;;;6213683;23;20506;-88
2022/10/02 20:39:28;;;;;;;10.93;2.77;;;10.50;1.00;;;;;;6238998;23;20157;-89
2022/10/02 20:42:08;;;;;;;12.40;2.73;;;10.40;1.00;;;;;;6238720;23;20301;-89
2022/10/02 20:44:35;;;;;;;13.80;4.90;;;10.40;1.00;;;;;;6238610;23;20646;-89
2022/10/02 20:47:38;;;;;;;18.57;7.93;;;10.40;99.90;;;;;;6239416;23;20843;-89
2022/10/02 20:50:07;;;;;;;27.27;11.83;;;10.50;1.00;;;;;;6240990;23;20172;-89
2022/10/02 20:53:01;;;;;;;27.23;9.50;;;10.60;1.00;;;;;;6238371;23;20201;-89
2022/10/02 20:55:40;;;;;;;29.77;11.10;;;10.60;99.90;;;;;;6238936;23;20178;-88
2022/10/02 20:58:17;;;;;;;25.93;10.43;;;10.70;1.00;;;;;;6239367;23;20165;-89
2022/10/02 21:00:58;;;;;;;21.97;7.83;;;10.70;99.90;;;;;;6239273;23;20586;-89
2022/10/02 21:03:40;;;;;;;28.57;11.23;;;10.90;99.90;;;;;;6238941;23;20908;-88
2022/10/02 21:06:18;;;;;;;20.73;6.60;;;10.80;99.90;;;;;;6239133;23;20185;-89
2022/10/02 21:08:56;;;;;;;31.23;12.73;;;10.80;99.90;;;;;;6239367;23;20158;-89
2022/10/02 21:11:32;;;;;;;30.43;9.90;;;10.80;99.90;;;;;;6240803;23;20550;-88
2022/10/02 21:14:35;;;;;;;29.77;10.83;;;10.80;95.80;;;;;;6239116;23;20153;-89
2022/10/02 21:17:43;;;;;;;25.38;10.38;;;10.70;99.90;;;;;;6239105;23;20149;-90
2022/10/02 21:20:37;;;;;;;19.40;6.97;;;10.60;1.00;;;;;;6239559;23;20236;-89
2022/10/02 21:23:14;;;;;;;16.23;6.53;;;10.50;99.90;;;;;;6242066;23;20174;-89
2022/10/02 21:25:58;;;;;;;17.80;5.50;;;10.50;99.90;;;;;;6239401;23;20173;-89
2022/10/02 21:28:40;;;;;;;13.50;5.57;;;10.40;99.90;;;;;;6240374;23;20150;-89
2022/10/02 21:31:32;;;;;;;12.70;5.57;;;10.40;1.00;;;;;;6239307;23;20210;-88
2022/10/02 21:34:29;;;;;;;13.50;5.20;;;10.40;1.00;;;;;;6238433;23;20162;-89
2022/10/02 21:37:11;;;;;;;11.00;3.53;;;10.40;99.90;;;;;;6238761;23;20153;-90
2022/10/02 21:40:10;;;;;;;16.60;4.10;;;10.30;99.90;;;;;;6239111;23;20154;-88
2022/10/02 21:42:40;;;;;;;15.10;4.50;;;10.40;99.90;;;;;;6238465;23;20169;-88
2022/10/02 21:45:45;;;;;;;12.63;4.10;;;10.40;71.40;;;;;;6238867;23;20182;-89
2022/10/02 21:48:38;;;;;;;16.43;5.00;;;10.30;37.30;;;;;;6093478;23;20656;-89
2022/10/02 21:51:39;;;;;;;15.83;3.43;;;10.20;97.30;;;;;;6093557;23;20191;-89
2022/10/02 21:54:35;;;;;;;13.73;3.87;;;10.20;99.90;;;;;;6222637;23;20173;-88
2022/10/02 21:57:16;;;;;;;14.53;3.63;;;10.20;1.00;;;;;;6239019;23;20605;-89
2022/10/02 22:00:07;;;;;;;13.87;3.67;;;10.20;1.00;;;;;;6238689;23;20759;-88
2022/10/02 22:02:38;;;;;;;16.60;3.70;;;10.20;99.90;;;;;;6238370;23;20609;-88
2022/10/02 22:05:38;;;;;;;15.67;3.97;;;10.20;99.90;;;;;;6238476;23;20186;-89
2022/10/02 22:08:19;;;;;;;14.27;3.63;;;10.10;1.00;;;;;;6238821;23;20156;-88
2022/10/02 22:11:30;;;;;;;18.23;3.87;;;10.20;1.00;;;;;;6238758;23;20156;-89
2022/10/02 22:14:08;;;;;;;17.90;3.60;;;10.10;99.90;;;;;;6092814;23;20664;-89
2022/10/02 22:16:46;;;;;;;13.93;3.80;;;10.10;99.90;;;;;;6093173;23;20572;-89
2022/10/02 22:19:29;;;;;;;12.13;3.33;;;10.20;99.90;;;;;;6183125;23;20165;-88
2022/10/02 22:22:17;;;;;;;17.03;3.40;;;10.20;99.90;;;;;;6238497;23;20212;-88
2022/10/02 22:25:07;;;;;;;11.30;2.83;;;10.30;99.90;;;;;;6238488;23;20554;-88
2022/10/02 22:27:36;;;;;;;10.63;2.83;;;10.20;99.90;;;;;;6238281;23;20613;-88
2022/10/02 22:30:03;;;;;;;12.53;3.27;;;10.20;99.90;;;;;;6239830;23;20149;-87
2022/10/02 22:33:12;;;;;;;11.53;2.80;;;10.20;99.90;;;;;;6237943;23;20181;-88
2022/10/02 22:36:01;;;;;;;13.80;2.67;;;10.20;99.90;;;;;;6238088;23;20248;-89
2022/10/02 22:39:07;;;;;;;11.30;2.43;;;10.10;99.90;;;;;;6238590;23;20158;-88
2022/10/02 22:42:05;;;;;;;12.60;2.80;;;10.10;1.00;;;;;;6093179;23;20187;-88
2022/10/02 22:44:35;;;;;;;9.63;2.50;;;10.20;1.00;;;;;;6231414;23;20712;-89
2022/10/02 22:47:08;;;;;;;16.40;3.30;;;10.10;1.00;;;;;;6240248;23;20142;-88
2022/10/02 22:49:43;;;;;;;14.90;2.73;;;10.10;1.00;;;;;;6238690;23;20589;-88
2022/10/02 22:52:19;;;;;;;11.43;2.83;;;10.10;1.00;;;;;;6238457;23;20600;-89
2022/10/02 22:55:17;;;;;;;15.73;3.33;;;10.20;1.00;;;;;;6238704;23;20180;-88
2022/10/02 22:57:46;;;;;;;13.47;2.93;;;10.00;64.40;;;;;;6238978;23;20161;-87
2022/10/02 23:00:17;;;;;;;17.87;3.63;;;10.00;99.90;;;;;;6238929;23;20211;-88
2022/10/02 23:03:00;;;;;;;16.07;3.13;;;10.10;9.30;;;;;;6238522;23;20207;-89
2022/10/02 23:05:40;;;;;;;16.10;3.17;;;10.10;99.90;;;;;;6239047;23;20951;-88
2022/10/02 23:08:18;;;;;;;16.93;3.13;;;10.10;99.90;;;;;;6241740;23;20164;-88
2022/10/02 23:11:16;;;;;;;19.90;3.27;;;10.10;99.90;;;;;;6241364;23;20153;-88
2022/10/02 23:13:47;;;;;;;15.73;2.97;;;10.20;1.00;;;;;;6233835;23;20235;-88
2022/10/02 23:16:36;;;;;;;15.77;3.30;;;10.10;1.00;;;;;;6240918;23;20240;-88
2022/10/02 23:19:20;;;;;;;19.97;4.27;;;10.10;1.00;;;;;;6241009;23;20189;-88
2022/10/02 23:21:52;;;;;;;14.53;3.93;;;10.10;1.00;;;;;;6241112;23;20208;-88
2022/10/02 23:24:29;;;;;;;14.50;3.13;;;10.10;99.90;;;;;;6241050;23;20162;-87
2022/10/02 23:27:07;;;;;;;14.87;2.97;;;10.20;99.90;;;;;;6240980;23;20146;-88
2022/10/02 23:29:58;;;;;;;15.53;3.00;;;10.50;99.90;;;;;;6241020;23;20150;-88
2022/10/02 23:32:43;;;;;;;14.60;3.23;;;10.40;13.10;;;;;;6240598;23;20198;-87
2022/10/02 23:35:21;;;;;;;14.20;3.30;;;10.50;1.00;;;;;;6241408;23;20181;-88
2022/10/02 23:37:57;;;;;;;14.10;2.90;;;10.50;1.00;;;;;;6241053;23;20171;-88
2022/10/02 23:43:35;;;;;;;16.17;3.57;;;10.60;1.00;;;;;;6242394;23;20255;-88
2022/10/02 23:46:08;;;;;;;15.63;2.83;;;10.60;1.00;;;;;;6241023;23;20311;-88
2022/10/02 23:48:37;;;;;;;15.97;3.13;;;10.60;99.90;;;;;;6216333;23;20603;-88
2022/10/02 23:51:15;;;;;;;11.38;2.40;;;10.60;99.90;;;;;;6242689;22;20173;-88
2022/10/02 23:53:43;;;;;;;13.40;2.67;;;10.60;99.90;;;;;;6243212;22;20161;-88
2022/10/02 23:57:06;;;;;;;14.37;2.73;;;10.70;99.90;;;;;;6241403;23;20170;-88
2022/10/02 23:59:50;;;;;;;15.37;3.00;;;10.60;99.90;;;;;;6095758;23;20190;-88
